Welcome to Des Moines Iowa Weather. I am an independent private personal weather station on the Northwest Side of Des Moines, Iowa. Just East of Windsor Heights and just West of Glendale . This site is also mobile friendly.

There are no active watches, warnings or advisories


Visit our other weather sites:

Historical Data

Weather Station Setup



Weather Underground History page Text

Daily Summary for January 19, 2018 Units:  English    Metric   Both
« Previous Day
Next Day »
Daily Weekly Monthly Yearly Custom
  High: Low: Average:
Temperature: 46.6 °F 27.7 °F 37.4 °F
Dew Point: 31.0 °F 22.0 °F 27.5 °F
Humidity: 82 % 52 % 68 %
Wind Speed: 6.0 mph 0.0 mph 1.2 mph
Wind Gust: 10.0 mph - -
Wind:- - South
Pressure: 29.92 in 29.66 in -
Precipitation: 0.03 in    
Historical Graphs
 
 
Tabular Data for January 19, 2018
Time Temperature Dew Point Pressure Wind Wind Speed Wind Gust Humidity Rainfall Rate (Hourly)
00:12 28.8 °F 23.0 °F 29.92 in Calm     79 % 0.00 in
00:27 28.8 °F 23.0 °F 29.92 in Calm   1.0 mph 80 % 0.00 in
00:42 28.9 °F 23.0 °F 29.91 in Calm     80 % 0.00 in
00:58 29.0 °F 24.0 °F 29.90 in Calm     80 % 0.00 in
01:13 28.9 °F 23.0 °F 29.91 in Calm     79 % 0.00 in
01:28 28.4 °F 23.0 °F 29.90 in Calm     79 % 0.00 in
01:43 27.9 °F 22.0 °F 29.90 in South 1.0 mph 2.0 mph 79 % 0.00 in
01:58 27.7 °F 23.0 °F 29.89 in Calm   1.0 mph 81 % 0.00 in
02:13 28.0 °F 23.0 °F 29.89 in Calm     82 % 0.00 in
02:28 28.3 °F 24.0 °F 29.88 in Calm   1.0 mph 82 % 0.00 in
02:45 28.4 °F 24.0 °F 29.86 in South 2.0 mph 3.0 mph 82 % 0.00 in
02:58 28.8 °F 24.0 °F 29.87 in Calm   2.0 mph 82 % 0.00 in
03:13 29.1 °F 24.0 °F 29.86 in Calm   4.0 mph 81 % 0.00 in
03:28 29.4 °F 24.0 °F 29.86 in South 2.0 mph 3.0 mph 81 % 0.00 in
03:43 29.9 °F 24.0 °F 29.85 in Calm   3.0 mph 80 % 0.00 in
03:58 30.1 °F 25.0 °F 29.85 in Calm   2.0 mph 80 % 0.00 in
04:13 30.1 °F 24.0 °F 29.85 in Calm   2.0 mph 79 % 0.00 in
04:28 29.9 °F 24.0 °F 29.85 in Calm   2.0 mph 80 % 0.00 in
04:43 29.9 °F 24.0 °F 29.84 in Calm   2.0 mph 80 % 0.00 in
04:58 29.7 °F 24.0 °F 29.84 in Calm   1.0 mph 80 % 0.00 in
05:13 29.8 °F 25.0 °F 29.84 in Calm   1.0 mph 81 % 0.00 in
05:28 29.8 °F 25.0 °F 29.84 in Calm   2.0 mph 81 % 0.00 in
05:43 29.9 °F 25.0 °F 29.84 in South 1.0 mph 2.0 mph 81 % 0.00 in
05:58 29.9 °F 24.0 °F 29.83 in Calm   2.0 mph 80 % 0.00 in
06:13 29.9 °F 25.0 °F 29.82 in Calm   1.0 mph 81 % 0.00 in
06:28 30.0 °F 25.0 °F 29.82 in Calm   2.0 mph 81 % 0.00 in
06:43 30.1 °F 25.0 °F 29.82 in Calm   2.0 mph 81 % 0.00 in
06:58 30.4 °F 25.0 °F 29.82 in Calm   2.0 mph 81 % 0.00 in
07:13 30.7 °F 25.0 °F 29.81 in South 1.0 mph 4.0 mph 80 % 0.00 in
07:28 31.0 °F 25.0 °F 29.80 in SSW 1.0 mph 5.0 mph 79 % 0.00 in
07:43 31.6 °F 25.0 °F 29.80 in SSW 5.0 mph 5.0 mph 78 % 0.00 in
07:58 32.1 °F 26.0 °F 29.80 in South 3.0 mph 6.0 mph 77 % 0.00 in
08:13 32.7 °F 26.0 °F 29.81 in SSW 1.0 mph 5.0 mph 76 % 0.00 in
08:28 33.2 °F 26.0 °F 29.81 in Calm   4.0 mph 75 % 0.00 in
08:44 33.7 °F 26.0 °F 29.81 in SSW 1.0 mph 8.0 mph 74 % 0.00 in
08:59 34.7 °F 27.0 °F 29.81 in SSW 2.0 mph 7.0 mph 72 % 0.00 in
09:14 35.6 °F 27.0 °F 29.80 in SSW 2.0 mph 9.0 mph 70 % 0.00 in
09:29 36.5 °F 27.0 °F 29.80 in SSW 2.0 mph 7.0 mph 68 % 0.00 in
09:44 37.3 °F 27.0 °F 29.80 in SSE 5.0 mph 7.0 mph 66 % 0.00 in
09:59 38.2 °F 27.0 °F 29.79 in SSW 3.0 mph 8.0 mph 65 % 0.00 in
10:14 38.7 °F 27.0 °F 29.79 in South 3.0 mph 7.0 mph 63 % 0.00 in
10:29 39.3 °F 27.0 °F 29.78 in South 3.0 mph 9.0 mph 62 % 0.00 in
10:44 39.7 °F 27.0 °F 29.78 in Calm   10.0 mph 62 % 0.00 in
10:59 40.6 °F 28.0 °F 29.77 in SSE 5.0 mph 7.0 mph 61 % 0.00 in
11:14 41.2 °F 28.0 °F 29.76 in Calm   6.0 mph 60 % 0.01 in
11:29 41.8 °F 28.0 °F 29.76 in South 1.0 mph 6.0 mph 58 % 0.01 in
11:44 42.0 °F 28.0 °F 29.76 in Calm   7.0 mph 58 % 0.02 in
11:59 42.7 °F 29.0 °F 29.75 in Calm   5.0 mph 58 % 0.02 in
12:14 43.2 °F 28.0 °F 29.75 in Calm   6.0 mph 55 % 0.02 in
12:29 43.6 °F 29.0 °F 29.73 in South 6.0 mph 6.0 mph 56 % 0.02 in
12:44 43.8 °F 28.0 °F 29.73 in South 1.0 mph 6.0 mph 54 % 0.01 in
12:59 43.7 °F 28.0 °F 29.71 in SSW 3.0 mph 7.0 mph 55 % 0.01 in
13:15 43.9 °F 28.0 °F 29.70 in Calm   9.0 mph 54 % 0.00 in
13:30 44.8 °F 29.0 °F 29.70 in SSW 6.0 mph 10.0 mph 54 % 0.00 in
13:45 45.4 °F 29.0 °F 29.69 in South 2.0 mph 5.0 mph 53 % 0.00 in
14:00 45.9 °F 29.0 °F 29.68 in Calm   7.0 mph 52 % 0.00 in
14:15 46.3 °F 30.0 °F 29.68 in SSW 1.0 mph 9.0 mph 53 % 0.00 in
14:30 46.4 °F 29.0 °F 29.67 in SSW 1.0 mph 7.0 mph 52 % 0.00 in
14:45 46.6 °F 30.0 °F 29.67 in Calm   8.0 mph 53 % 0.00 in
15:00 46.6 °F 31.0 °F 29.67 in SSE 5.0 mph 5.0 mph 54 % 0.00 in
15:15 46.5 °F 30.0 °F 29.66 in SW 2.0 mph 6.0 mph 54 % 0.00 in
15:30 46.5 °F 30.0 °F 29.68 in Calm   4.0 mph 54 % 0.00 in
15:45 46.5 °F 30.0 °F 29.68 in Calm   7.0 mph 54 % 0.00 in
16:00 46.4 °F 30.0 °F 29.68 in Calm   10.0 mph 54 % 0.00 in
16:15 46.1 °F 31.0 °F 29.68 in SSW 2.0 mph 7.0 mph 55 % 0.00 in
16:30 45.5 °F 31.0 °F 29.68 in SSW 2.0 mph 7.0 mph 57 % 0.00 in
16:45 45.0 °F 31.0 °F 29.69 in Calm   6.0 mph 58 % 0.00 in
17:00 44.3 °F 31.0 °F 29.68 in South 5.0 mph 9.0 mph 59 % 0.00 in
17:15 43.9 °F 31.0 °F 29.67 in South 1.0 mph 5.0 mph 60 % 0.00 in
17:30 43.4 °F 31.0 °F 29.67 in SSW 2.0 mph 5.0 mph 61 % 0.00 in
17:45 43.1 °F 30.0 °F 29.68 in SSW 3.0 mph 6.0 mph 61 % 0.00 in
18:00 42.8 °F 30.0 °F 29.73 in North 3.0 mph 8.0 mph 61 % 0.00 in
18:15 42.3 °F 30.0 °F 29.70 in SSW 4.0 mph 7.0 mph 62 % 0.00 in
18:30 42.1 °F 30.0 °F 29.70 in South 3.0 mph 7.0 mph 62 % 0.00 in
18:45 41.8 °F 30.0 °F 29.70 in South 3.0 mph 5.0 mph 63 % 0.00 in
19:00 41.4 °F 30.0 °F 29.71 in South 1.0 mph 5.0 mph 63 % 0.00 in
19:15 41.1 °F 30.0 °F 29.72 in South 3.0 mph 3.0 mph 64 % 0.00 in
19:30 40.9 °F 29.0 °F 29.73 in Calm   5.0 mph 64 % 0.00 in
19:45 40.8 °F 30.0 °F 29.73 in Calm   6.0 mph 65 % 0.00 in
20:00 40.6 °F 30.0 °F 29.74 in Calm   3.0 mph 65 % 0.00 in
20:15 40.3 °F 30.0 °F 29.74 in SSE 2.0 mph 3.0 mph 66 % 0.00 in
20:30 40.2 °F 30.0 °F 29.75 in Calm   3.0 mph 67 % 0.00 in
20:45 40.1 °F 30.0 °F 29.75 in SW 3.0 mph 5.0 mph 67 % 0.00 in
21:00 40.1 °F 30.0 °F 29.76 in Calm   2.0 mph 67 % 0.00 in
21:15 40.0 °F 30.0 °F 29.75 in SSW 2.0 mph 3.0 mph 68 % 0.00 in
21:30 39.9 °F 30.0 °F 29.76 in Calm   8.0 mph 68 % 0.00 in
21:45 39.7 °F 30.0 °F 29.76 in Calm   3.0 mph 68 % 0.00 in
22:00 39.5 °F 30.0 °F 29.77 in Calm   3.0 mph 69 % 0.00 in
22:15 39.3 °F 30.0 °F 29.77 in Calm   2.0 mph 69 % 0.00 in
22:30 38.8 °F 30.0 °F 29.77 in Calm   2.0 mph 70 % 0.00 in
22:45 38.5 °F 30.0 °F 29.77 in Calm   5.0 mph 71 % 0.00 in
23:00 38.0 °F 30.0 °F 29.78 in Calm   3.0 mph 72 % 0.00 in
23:15 37.6 °F 30.0 °F 29.78 in Calm     73 % 0.00 in
23:30 37.2 °F 29.0 °F 29.78 in Calm     73 % 0.00 in
23:45 36.8 °F 29.0 °F 29.78 in Calm     74 % 0.00 in
Des Moines Weather and Climate
Compliments of Weather Underground - 3 mb

Script developed by  Jim McMurry - jmcmurry@mwt.net Adapted for the template by  Wim van der Kuil - Leuven-Template.eu

You find our weather info also at:

Weather Underground

Equipment we use:

Weather-station
Davis VP2 Plus

Weather-program
Davis Weatherlink.Com

Weather-server
iMac (Retina 4K, 21.5-inch, Late 2015)

Provider
Hostmonster.com

Davis VP2 Plus

Davis Weatherlink.Com

iMac (Retina 4K, 21.5-inch, Late 2015)

Hostmonster.com